Wild Boar Gully, Santa Catalina Island Weather observations

Data are for 10 minute period ending at time listed.
 Day   Time   Solar   Ave.   Ave.  Ave.  Vector    Max.   Stn.    Total
  of    of     Rad.   Air    Rel.  Wind   Wind     Wind   Baro.  Precip.
Year   Day            Temp.  Hum.  Speed  Dir.     Gust   Pres.         
2014   (PST)   W/m2    F      %     mph   deg.      mph    mb.     in.  
------------------------------------------------------------------------
 273    0:30    0.0    73   52.5     2     93.7     3.0    999.0   0.00  
 273    0:40    0.0    73   50.2     3     69.9     6.0    999.0   0.00  
 273    0:50    0.0    74   50.1     2     79.6     5.4    999.0   0.00  
 273    1:00    0.0    74   50.4     3     57.5     8.4    999.0   0.00  
 273    1:10    0.0    73   53.8     3     67.7     4.2    999.0   0.00  
 273    1:20    0.0    73   54.0     2    101.7     4.8    999.0   0.00  
 273    1:30    0.0    72   55.6     1     38.9     3.0    999.0   0.00  
 273    1:40    0.0    72   54.5     1     38.5     1.8    999.0   0.00  
 273    1:50    0.0    72   53.9     3    116.8     4.8    999.0   0.00  
 273    2:00    0.0    71   54.6     2     80.8     4.8    999.0   0.00  
 273    2:10    0.0    70   55.6     4     87.2     7.2    999.0   0.00  
 273    2:20    0.0    69   59.0     6     86.9     7.8    999.0   0.00  
 273    2:30    0.0    69   58.4     5     88.1     6.6    999.0   0.00  
 273    2:40    0.0    70   58.6     5     90.7     7.8    999.0   0.00  
 273    2:50    0.0    69   63.1     4    100.0     6.6    999.0   0.00  
 273    3:00    0.0    69   62.6     2     97.4     4.2    999.0   0.00  
 273    3:10    0.0    69   62.1     3    104.4     5.4    999.0   0.00  
 273    3:20    0.0    68   68.3     6     96.9     7.2    999.0   0.00  
 273    3:30    0.0    68   70.5     7     76.9     9.0    999.0   0.00  
 273    3:40    0.0    68   72.2     7     77.8     8.4    999.0   0.00  
 273    3:50    0.0    68   73.0     6     68.1     7.2    999.0   0.00  
 273    4:00    0.0    67   69.9     5     77.9     6.6    999.0   0.00  
 273    4:10    0.0    68   64.4     5     90.5     7.2    999.0   0.00  
 273    4:20    0.0    69   62.1     3     88.4     6.0    999.0   0.00  
 273    4:30    0.0    69   60.1     3     61.5     3.6    999.0   0.00  
 273    4:40    0.0    69   64.7     3    114.9     4.8    999.0   0.00  
 273    4:50    0.0    67   67.5     2     89.5     4.2    999.0   0.00  
 273    5:00    0.0    67   68.9     5     92.2     7.2    999.0   0.00  
 273    5:10    0.0    67   72.2     5     95.7     6.6    999.0   0.00  
 273    5:20    0.0    67   76.3     7     93.5     9.0    999.0   0.00  
 273    5:30    0.0    67   78.0     8     80.1     9.6    999.0   0.00  
 273    5:40    0.0    67   79.5     8     80.3    10.2    999.0   0.00  
 273    5:50    1.0    67   80.1     8     81.5     9.6    999.0   0.00  
 273    6:00    6.0    67   80.1     8     78.0    10.2    999.0   0.00  
 273    6:10   12.0    67   79.5     6     84.8     7.8    999.0   0.00  
 273    6:20   21.0    66   79.1     5     82.2     6.6    999.0   0.00  
 273    6:30   62.0    68   78.7     6     72.0     7.2    999.0   0.00  
 273    6:40   90.0    68   76.8     4     88.6     6.0    999.0   0.00  
 273    6:50  116.0    70   75.4     5     82.2     7.2    999.0   0.00  
 273    7:00  143.0    72   73.9     2    115.7     4.2    999.0   0.00  
 273    7:10  170.0    72   72.9     2    262.3     3.6    999.0   0.00  
 273    7:20  196.0    71   76.9     3    229.6     3.6    999.0   0.00  
 273    7:30  224.0    71   78.7     3    212.1     4.2    999.0   0.00  
 273    7:40  254.0    71   79.2     2    232.0     3.0    999.0   0.00  
 273    7:50  281.0    71   79.0     3    220.6     4.8    999.0   0.00  
 273    8:00  308.0    70   80.1     4    226.7     5.4    999.0   0.00  
 273    8:10  337.0    71   80.3     2    228.7     3.0    999.0   0.00  
 273    8:20  364.0    71   79.8     3    233.2     3.6    999.0   0.00  
 273    8:30  390.0    71   78.7     2    228.7     3.6    999.0   0.00  
 273    8:40  414.0    72   76.5     3    229.1     3.6    999.0   0.00  
 273    8:50  437.0    72   75.2     3    234.9     4.8    999.0   0.00  
 273    9:00  458.0    73   73.4     3    221.8     4.8    999.0   0.00  
 273    9:10  481.0    74   68.3     3    229.9     4.8    999.0   0.00  
 273    9:20  502.0    74   64.3     4    235.0     6.0    999.0   0.00  
 273    9:30  523.0    74   66.0     4    233.6     6.6    999.0   0.00  
 273    9:40  543.0    75   64.1     3    233.4     6.0    999.0   0.00  
 273    9:50  560.0    74   68.8     4    231.9     6.6    999.0   0.00  
 273   10:00  576.0    74   70.2     4    222.3     6.6    999.0   0.00  
 273   10:10  592.0    74   70.2     4    220.1     4.8    999.0   0.00  
 273   10:20  606.0    74   68.2     4    226.4     6.0    999.0   0.00  
 273   10:30  621.0    75   68.6     4    223.6     6.6    999.0   0.00  
 273   10:40  633.0    75   71.3     6    217.2     7.2    999.0   0.00  
 273   10:50  643.0    75   70.7     5    215.9     7.2    999.0   0.00  
 273   11:00  651.0    74   72.1     4    235.5     7.2    999.0   0.00  
 273   11:10  659.0    74   71.5     4    239.3     6.6    999.0   0.00  
 273   11:20  664.0    74   72.4     4    240.4     7.2    999.0   0.00  
 273   11:30  668.0    74   73.1     6    237.8     7.8    999.0   0.00  
 273   11:40  670.0    74   72.4     6    236.7    10.2    999.0   0.00  
 273   11:50  671.0    74   72.8     7    231.8     9.0    999.0   0.00  
 273   12:00  670.0    74   74.4     6    238.7     9.6    999.0   0.00  
 273   12:10  669.0    75   73.1     6    227.0    10.8    999.0   0.00  
 273   12:20  665.0    75   73.0     8    236.0    11.3    999.0   0.00  
 273   12:30  660.0    76   71.2     9    241.1    11.3    999.0   0.00  
 273   12:40  653.0    78   68.3     8    244.6    11.3    999.0   0.00  
 273   12:50  645.0    78   67.5     9    241.0    13.1    999.0   0.00  
 273   13:00  635.0    77   68.0     9    236.3    12.5    999.0   0.00  
 273   13:10  624.0    78   67.4     8    242.9    11.9    999.0   0.00  
 273   13:20  613.0    79   65.3     8    240.4    13.1    999.0   0.00  
 273   13:30  598.0    78   66.8     8    242.5    13.1    999.0   0.00  
 273   13:40  583.0    78   65.8     8    244.5    11.9    999.0   0.00  
 273   13:50  567.0    78   65.7     9    245.7    14.3    999.0   0.00  
 273   14:00  550.0    79   63.8     9    250.8    12.5    999.0   0.00  
 273   14:10  531.0    80   57.2    11    261.9    15.5    999.0   0.00  
 273   14:20  512.0    80   60.3    10    260.1    14.9    999.0   0.00  
 273   14:30  491.0    80   56.0    12    270.8    16.1    999.0   0.00  
 273   14:40  469.0    80   57.0    13    269.1    15.5    999.0   0.00  
 273   14:50  445.0    79   61.0    12    271.8    15.5    999.0   0.00  
 273   15:00  421.0    78   62.2    12    268.7    14.3    999.0   0.00  
 273   15:10  395.0    78   64.9    13    266.5    16.1    999.0   0.00  
 273   15:20  370.0    78   65.2    12    268.6    15.5    999.0   0.00  
 273   15:30  344.0    77   67.7    12    269.0    14.9    999.0   0.00  
 273   15:40  318.0    76   68.3    12    267.5    16.1    999.0   0.00  
 273   15:50  290.0    75   69.6    13    269.1    16.1    999.0   0.00  
 273   16:00  263.0    75   69.9    12    270.1    16.1    999.0   0.00  
 273   16:10  236.0    76   68.5    11    275.2    15.5    999.0   0.00  
 273   16:20  208.0    77   65.2    10    279.2    13.1    999.0   0.00  
 273   16:30  180.0    77   63.2     9    275.9    11.9    999.0   0.00  
 273   16:40  153.0    78   59.0     8    282.8    11.9    999.0   0.00  
 273   16:50  127.0    80   50.3     6    307.6    10.8    999.0   0.00  
 273   17:00  101.0    80   45.8     6    342.3    10.8    999.0   0.00  
 273   17:10   71.0    81   41.7     6    303.4     9.6    999.0   0.00  
 273   17:20   41.0    80   44.1     5    302.7     8.4    999.0   0.00  
 273   17:30   21.0    78   47.0     2    334.7     6.0    999.0   0.00  
 273   17:40    8.0    76   50.2     3     37.7     6.6    999.0   0.00  
 273   17:50    3.0    74   51.2     6     37.7    10.2    999.0   0.00  
 273   18:00    0.0    74   52.9     5     16.5     7.8    999.0   0.00  
 273   18:10    0.0    77   44.9     4    322.9     7.8    999.0   0.00  
 273   18:20    0.0    76   46.7     2     29.5     4.8    999.0   0.00  
 273   18:30    0.0    75   48.0     3    111.7     6.0    999.0   0.00  
 273   18:40    0.0    74   50.9     4     45.7     7.2    999.0   0.00  
 273   18:50    0.0    73   51.4     4     64.6     9.0    999.0   0.00  
 273   19:00    0.0    73   51.0     5     45.6     7.8    999.0   0.00  
 273   19:10    0.0    72   54.3     8     46.7    10.8    999.0   0.00  
 273   19:20    0.0    72   56.3     9     41.9    13.1    999.0   0.00  
 273   19:30    0.0    71   60.0     9     39.5    11.9    999.0   0.00  
 273   19:40    0.0    70   65.5     9     29.1    17.3    999.0   0.00  
 273   19:50    0.0    70   68.1    10     32.1    14.9    999.0   0.00  
 273   20:00    0.0    70   63.2     4     53.4     9.6    999.0   0.00  
 273   20:10    0.0    71   57.0     3    103.0     4.8    999.0   0.00  
 273   20:20    0.0    71   58.6     5     55.5     7.8    999.0   0.00  
 273   20:30    0.0    71   57.9     3     56.2     8.4    999.0   0.00  
 273   20:40    0.0    70   61.5     4     45.8     9.6    999.0   0.00  
 273   20:50    0.0    71   58.4     2    251.8     5.4    999.0   0.00  
 273   21:00    0.0    70   56.6     2     21.6     4.2    999.0   0.00  
 273   21:10    0.0    70   55.9     3    351.2     4.2    999.0   0.00  
 273   21:20    0.0    70   54.0     3    355.8     4.8    999.0   0.00  
 273   21:30    0.0    70   55.0     4      0.0     6.0    999.0   0.00  
 273   21:40    0.0    70   57.8     3     14.8     7.2    999.0   0.00  
 273   21:50    0.0    71   53.3     2     87.6     3.0    999.0   0.00  
 273   22:00    0.0    71   57.7     1    159.9     3.6    999.0   0.00  
 273   22:10    0.0    69   66.4     3    176.8     5.4    999.0   0.00  
 273   22:20    0.0    68   72.8     3    216.3     5.4    999.0   0.00  
 273   22:30    0.0    67   74.2     1     89.3     2.4    999.0   0.00  
 273   22:40    0.0    66   75.0     1    125.6     1.8    999.0   0.00  
 273   22:50    0.0    66   74.6     1    214.5     3.0    999.0   0.00  
 273   23:00    0.0    66   74.2     2    105.4     3.0    999.0   0.00  
 273   23:10    0.0    65   72.4     4     38.4     9.0    999.0   0.00  
 273   23:20    0.0    66   72.7     2     39.3     7.2    999.0   0.00  
 273   23:30    0.0    66   71.4     1     26.4     1.8    999.0   0.00  
 273   23:40    0.0    66   71.9     1     95.6     1.2    999.0   0.00  
 273   23:50    0.0    65   73.0     1     80.4     1.8    999.0   0.00  
 274    0:00    0.0    64   74.0     1     45.0     1.2    999.0   0.00  
 274    0:10    0.0    64   73.8     1     45.1     1.8    999.0   0.00  
 274    0:20    0.0    65   74.1     1    101.7     1.8    999.0   0.00  

Return to Wild Boar Gully graphs page.


Western Regional Climate Center,wrcc@dri.edu